createdAt,value
2019-05-21T00:01:58.103Z,99534.75
2019-05-21T00:04:30.129Z,99537.16
2019-05-21T00:07:03.452Z,99542.09
2019-05-21T00:09:40.979Z,99534.73
2019-05-21T00:12:13.465Z,99534.03
2019-05-21T00:14:48.388Z,99537.63
2019-05-21T00:17:21.371Z,99536.30
2019-05-21T00:19:58.638Z,99531.26
2019-05-21T00:22:31.871Z,99531.37
2019-05-21T00:25:04.315Z,99534.86
2019-05-21T00:27:35.988Z,99534.97
2019-05-21T00:31:01.700Z,99531.11
2019-05-21T00:34:41.801Z,99532.09
2019-05-21T00:37:55.716Z,99534.21
2019-05-21T00:41:21.552Z,99532.77
2019-05-21T00:43:59.679Z,99532.75
2019-05-21T00:46:31.450Z,99532.62
2019-05-21T00:49:03.395Z,99540.55
2019-05-21T00:51:35.144Z,99537.54
2019-05-21T00:54:06.890Z,99541.64
2019-05-21T00:56:40.125Z,99543.30
2019-05-21T00:59:12.072Z,99539.47
2019-05-21T01:01:43.991Z,99538.63
2019-05-21T01:04:17.480Z,99538.16
2019-05-21T01:06:49.431Z,99535.25
2019-05-21T01:09:21.152Z,99535.02
2019-05-21T01:11:55.077Z,99528.61
2019-05-21T01:14:28.005Z,99532.72
2019-05-21T01:17:00.169Z,99525.73
2019-05-21T01:19:32.167Z,99534.62
2019-05-21T01:22:04.195Z,99527.53
2019-05-21T01:24:35.839Z,99530.17
2019-05-21T01:27:07.597Z,99534.62
2019-05-21T01:29:39.682Z,99534.72
2019-05-21T01:32:12.094Z,99533.88
2019-05-21T01:34:45.395Z,99535.67
2019-05-21T01:37:17.264Z,99534.83
2019-05-21T01:39:50.268Z,99539.41
2019-05-21T01:42:22.448Z,99539.52
2019-05-21T01:44:54.352Z,99538.30
2019-05-21T01:47:26.637Z,99533.72
2019-05-21T01:49:58.870Z,99538.64
2019-05-21T01:52:30.606Z,99537.45
2019-05-21T01:55:02.229Z,99538.51
2019-05-21T01:57:33.904Z,99535.97
2019-05-21T02:00:06.395Z,99537.42
2019-05-21T02:02:38.694Z,99537.42
2019-05-21T02:05:10.567Z,99537.90
2019-05-21T02:07:42.227Z,99538.38
2019-05-21T02:10:14.079Z,99540.75
2019-05-21T02:12:45.734Z,99538.48
2019-05-21T02:15:17.734Z,99538.48
2019-05-21T02:17:49.958Z,99541.02
2019-05-21T02:20:21.945Z,99534.52
2019-05-21T02:22:53.765Z,99541.13
2019-05-21T02:25:25.462Z,99540.89
2019-05-21T02:27:57.239Z,99542.31
2019-05-21T02:30:30.304Z,99548.45
2019-05-21T02:33:02.865Z,99549.87
2019-05-21T02:35:52.973Z,99556.38
2019-05-21T02:38:08.214Z,99551.56
2019-05-21T02:40:39.871Z,99548.55
2019-05-21T02:43:11.608Z,99549.97
2019-05-21T02:45:43.323Z,99551.80
2019-05-21T02:48:16.281Z,99552.75
2019-05-21T02:50:48.424Z,99550.58
2019-05-21T02:53:20.114Z,99543.60
2019-05-21T02:55:51.779Z,99546.14
2019-05-21T02:58:23.682Z,99547.09
2019-05-21T03:01:26.539Z,99544.55
2019-05-21T03:03:59.025Z,99544.31
2019-05-21T03:06:30.669Z,99550.17
2019-05-21T03:09:02.660Z,99549.40
2019-05-21T03:11:34.364Z,99553.50
2019-05-21T03:14:06.003Z,99545.20
2019-05-21T03:16:38.113Z,99551.53
2019-05-21T03:19:10.462Z,99552.14
2019-05-21T03:21:42.444Z,99548.75
2019-05-21T03:24:14.385Z,99546.21
2019-05-21T03:26:46.262Z,99554.27
2019-05-21T03:29:17.940Z,99555.59
2019-05-21T03:31:49.594Z,99554.84
2019-05-21T03:34:22.238Z,99552.95
2019-05-21T03:36:54.178Z,99552.00
2019-05-21T03:39:25.831Z,99556.06
2019-05-21T03:41:57.687Z,99557.48
2019-05-21T03:44:29.541Z,99556.64
2019-05-21T03:47:01.205Z,99563.72
2019-05-21T03:49:33.267Z,99564.70
2019-05-21T03:52:05.319Z,99563.85
2019-05-21T03:54:37.094Z,99565.65
2019-05-21T03:57:08.738Z,99560.84
2019-05-21T03:59:40.990Z,99570.19
2019-05-21T04:02:12.667Z,99578.21
2019-05-21T04:04:45.012Z,99575.23
2019-05-21T04:07:16.684Z,99570.80
2019-05-21T04:09:48.336Z,99570.89
2019-05-21T04:12:19.988Z,99573.44
2019-05-21T04:14:55.833Z,99574.25
2019-05-21T04:17:37.531Z,99576.08
2019-05-21T04:20:10.842Z,99575.70
2019-05-21T04:23:01.524Z,99581.45
2019-05-21T04:25:34.295Z,99585.05
2019-05-21T04:28:06.310Z,99593.92
2019-05-21T04:30:38.488Z,99592.59
2019-05-21T04:33:10.232Z,99596.94
2019-05-21T04:35:42.453Z,99595.72
2019-05-21T04:38:14.246Z,99599.30
2019-05-21T04:40:46.253Z,99602.92
2019-05-21T04:43:17.977Z,99603.64
2019-05-21T04:45:49.795Z,99602.92
2019-05-21T04:48:21.865Z,99614.81
2019-05-21T04:50:54.493Z,99613.02
2019-05-21T04:53:26.205Z,99610.84
2019-05-21T04:55:58.179Z,99604.72
2019-05-21T04:58:30.413Z,99601.94
2019-05-21T05:01:02.293Z,99595.47
2019-05-21T05:03:33.972Z,99601.80
2019-05-21T05:06:06.615Z,99603.73
2019-05-21T05:08:38.318Z,99606.46
2019-05-21T05:11:10.063Z,99608.83
2019-05-21T05:13:41.727Z,99605.47
2019-05-21T05:16:13.479Z,99598.72
2019-05-21T05:18:45.171Z,99600.72
2019-05-21T05:21:16.872Z,99589.53
2019-05-21T05:23:49.267Z,99593.59
2019-05-21T05:26:21.066Z,99595.00
2019-05-21T05:28:52.712Z,99598.25
2019-05-21T05:31:24.365Z,99603.53
2019-05-21T05:33:56.574Z,99594.48
2019-05-21T05:36:28.646Z,99592.82
2019-05-21T05:39:00.987Z,99591.59
2019-05-21T05:41:32.859Z,99586.89
2019-05-21T05:44:04.608Z,99586.17
2019-05-21T05:46:36.379Z,99577.03
2019-05-21T05:49:14.182Z,99578.92
2019-05-21T05:51:45.868Z,99566.98
2019-05-21T05:54:18.359Z,99568.29
2019-05-21T05:56:50.066Z,99573.76
2019-05-21T05:59:21.827Z,99566.54
2019-05-21T06:01:53.772Z,99575.49
2019-05-21T06:04:25.477Z,99575.97
2019-05-21T06:06:57.204Z,99577.88
2019-05-21T06:09:29.498Z,99584.58
2019-05-21T06:12:01.154Z,99588.28
2019-05-21T06:14:32.963Z,99597.62
2019-05-21T06:17:04.769Z,99611.75
2019-05-21T06:19:36.658Z,99608.55
2019-05-21T06:22:08.323Z,99619.83
2019-05-21T06:24:41.043Z,99616.87
2019-05-21T06:27:12.782Z,99626.39
2019-05-21T06:29:44.679Z,99630.59
2019-05-21T06:32:16.736Z,99632.77
2019-05-21T06:34:48.843Z,99632.98
2019-05-21T06:37:21.189Z,99629.21
2019-05-21T06:39:53.515Z,99632.08
2019-05-21T06:42:25.411Z,99633.23
2019-05-21T06:44:57.197Z,99638.23
2019-05-21T06:47:28.841Z,99635.12
2019-05-21T06:50:00.868Z,99637.76
2019-05-21T06:52:32.579Z,99649.63
2019-05-21T06:55:04.935Z,99650.10
2019-05-21T06:57:36.662Z,99655.38
2019-05-21T07:00:08.931Z,99654.06
2019-05-21T07:02:40.755Z,99652.65
2019-05-21T07:05:12.750Z,99648.13
2019-05-21T07:07:44.489Z,99646.80
2019-05-21T07:10:18.592Z,99649.44
2019-05-21T07:12:50.306Z,99652.93
2019-05-21T07:15:22.722Z,99652.65
2019-05-21T07:17:54.581Z,99659.24
2019-05-21T07:20:26.721Z,99669.42
2019-05-21T07:22:58.773Z,99671.68
2019-05-21T07:25:31.441Z,99663.77
2019-05-21T07:28:03.166Z,99669.52
2019-05-21T07:30:35.238Z,99660.78
2019-05-21T07:33:07.513Z,99663.77
2019-05-21T07:35:39.664Z,99671.59
2019-05-21T07:38:11.695Z,99679.03
2019-05-21T07:40:43.429Z,99687.80
2019-05-21T07:43:15.609Z,99687.80
2019-05-21T07:45:47.373Z,99682.42
2019-05-21T07:48:19.324Z,99680.64
2019-05-21T07:50:51.440Z,99682.30
2019-05-21T07:53:23.185Z,99673.06
2019-05-21T07:55:54.866Z,99682.30
2019-05-21T07:58:27.472Z,99670.08
2019-05-21T08:01:01.135Z,99670.55
2019-05-21T08:03:32.621Z,99677.62
2019-05-21T08:06:04.318Z,99675.08
2019-05-21T08:08:37.594Z,99691.38
2019-05-21T08:11:09.610Z,99694.95
2019-05-21T08:13:41.985Z,99688.83
2019-05-21T08:16:13.850Z,99695.80
2019-05-21T08:18:45.942Z,99704.09
2019-05-21T08:21:17.902Z,99704.48
2019-05-21T08:23:51.092Z,99703.16
2019-05-21T08:26:22.842Z,99708.44
2019-05-21T08:28:55.272Z,99705.80
2019-05-21T08:31:27.102Z,99701.84
2019-05-21T08:33:58.915Z,99712.30
2019-05-21T08:36:30.627Z,99708.44
2019-05-21T08:39:02.467Z,99707.20
2019-05-21T08:41:34.553Z,99716.45
2019-05-21T08:44:07.122Z,99711.63
2019-05-21T08:46:38.899Z,99716.26
2019-05-21T08:49:10.780Z,99717.45
2019-05-21T08:51:42.851Z,99711.61
2019-05-21T08:54:16.274Z,99701.16
2019-05-21T08:56:48.377Z,99705.58
2019-05-21T08:59:21.198Z,99694.17
2019-05-21T09:01:52.889Z,99701.06
2019-05-21T09:04:43.626Z,99701.44
2019-05-21T09:06:58.125Z,99710.83
2019-05-21T09:09:48.243Z,99710.73
2019-05-21T09:12:03.329Z,99718.28
2019-05-21T09:14:36.039Z,99718.75
2019-05-21T09:17:07.716Z,99720.92
2019-05-21T09:19:39.674Z,99727.05
2019-05-21T09:22:11.583Z,99731.56
2019-05-21T09:24:43.278Z,99747.02
2019-05-21T09:27:14.996Z,99735.62
2019-05-21T09:29:47.741Z,99732.33
2019-05-21T09:32:21.204Z,99744.20
2019-05-21T09:34:53.535Z,99753.91
2019-05-21T09:37:25.519Z,99761.06
2019-05-21T09:39:57.676Z,99767.19
2019-05-21T09:42:31.730Z,99766.25
2019-05-21T09:45:05.879Z,99768.67
2019-05-21T09:47:37.479Z,99776.03
2019-05-21T09:50:09.481Z,99787.06
2019-05-21T09:52:41.452Z,99776.97
2019-05-21T09:55:13.761Z,99786.21
2019-05-21T09:58:07.376Z,99789.48
2019-05-21T10:01:04.437Z,99783.17
2019-05-21T10:03:39.485Z,99793.64
2019-05-21T10:06:11.158Z,99799.27
2019-05-21T10:08:42.980Z,99799.46
2019-05-21T10:11:14.935Z,99803.59
2019-05-21T10:13:46.649Z,99804.34
2019-05-21T10:16:20.690Z,99801.11
2019-05-21T10:18:52.554Z,99803.91
2019-05-21T10:21:24.906Z,99813.91
2019-05-21T10:23:56.739Z,99816.93
2019-05-21T10:26:28.648Z,99824.73
2019-05-21T10:29:00.294Z,99828.50
2019-05-21T10:31:32.705Z,99833.57
2019-05-21T10:34:07.327Z,99839.39
2019-05-21T10:36:39.008Z,99833.45
2019-05-21T10:39:11.100Z,99837.11
2019-05-21T10:41:45.949Z,99841.60
2019-05-21T10:44:16.178Z,99837.89
2019-05-21T10:46:48.784Z,99843.37
2019-05-21T10:49:20.527Z,99848.34
2019-05-21T10:51:52.418Z,99844.62
2019-05-21T10:54:24.340Z,99853.78
2019-05-21T10:56:56.052Z,99852.71
2019-05-21T10:59:27.868Z,99857.91
2019-05-21T11:02:17.386Z,99852.62
2019-05-21T11:05:00.558Z,99859.23
2019-05-21T11:07:32.445Z,99864.80
2019-05-21T11:10:04.559Z,99868.16
2019-05-21T11:12:36.808Z,99867.03
2019-05-21T11:15:09.725Z,99869.58
2019-05-21T11:17:58.952Z,99874.20
2019-05-21T11:20:17.267Z,99872.75
2019-05-21T11:22:49.428Z,99880.97
2019-05-21T11:25:21.443Z,99885.30
2019-05-21T11:27:53.841Z,99880.74
2019-05-21T11:30:25.674Z,99886.31
2019-05-21T11:32:58.173Z,99888.02
2019-05-21T11:35:30.370Z,99892.32
2019-05-21T11:38:02.244Z,99901.95
2019-05-21T11:40:34.294Z,99906.77
2019-05-21T11:43:06.249Z,99907.14
2019-05-21T11:45:39.749Z,99905.73
2019-05-21T11:48:12.868Z,99910.52
2019-05-21T11:50:45.036Z,99905.73
2019-05-21T11:53:16.965Z,99909.19
2019-05-21T11:55:49.022Z,99916.17
2019-05-21T11:58:20.915Z,99920.61
2019-05-21T12:00:52.707Z,99916.65
2019-05-21T12:03:25.263Z,99921.47
2019-05-21T12:05:57.005Z,99922.53
2019-05-21T12:08:28.882Z,99928.30
2019-05-21T12:11:00.574Z,99932.04
2019-05-21T12:13:32.290Z,99930.53
2019-05-21T12:16:04.131Z,99938.71
2019-05-21T12:18:36.649Z,99942.96
2019-05-21T12:21:08.868Z,99937.55
2019-05-21T12:23:40.756Z,99937.36
2019-05-21T12:26:12.921Z,99935.19
2019-05-21T12:28:44.649Z,99945.29
2019-05-21T12:31:16.326Z,99954.07
2019-05-21T12:33:48.376Z,99958.30
2019-05-21T12:36:21.698Z,99959.05
2019-05-21T12:38:53.531Z,99958.48
2019-05-21T12:41:25.413Z,99967.52
2019-05-21T12:43:57.118Z,99971.64
2019-05-21T12:46:29.070Z,99969.52
2019-05-21T12:49:00.720Z,99976.30
2019-05-21T12:51:32.600Z,99977.42
2019-05-21T12:54:07.269Z,99984.29
2019-05-21T12:56:40.860Z,99979.84
2019-05-21T12:59:12.739Z,99979.69
2019-05-21T13:01:44.832Z,99985.02
2019-05-21T13:04:16.811Z,99997.84
2019-05-21T13:06:48.613Z,99998.34
2019-05-21T13:09:32.472Z,100001.52
2019-05-21T13:11:53.986Z,100006.98
2019-05-21T13:14:25.698Z,100006.35
2019-05-21T13:16:57.435Z,100006.54
2019-05-21T13:19:29.280Z,100011.09
2019-05-21T13:22:01.114Z,100016.95
2019-05-21T13:24:32.833Z,100021.01
2019-05-21T13:27:04.826Z,100023.77
2019-05-21T13:29:36.671Z,100028.68
2019-05-21T13:32:08.727Z,100026.98
2019-05-21T13:34:41.055Z,100038.49
2019-05-21T13:37:13.007Z,100035.85
2019-05-21T13:39:49.908Z,100035.00
2019-05-21T13:42:18.272Z,100034.27
2019-05-21T13:44:49.988Z,100045.78
2019-05-21T13:52:25.196Z,100052.61
2019-05-21T13:54:57.270Z,100048.64
2019-05-21T13:57:29.269Z,100053.93
2019-05-21T14:00:01.413Z,100055.81
2019-05-21T14:02:33.620Z,100056.66
2019-05-21T14:05:06.178Z,100059.86
2019-05-21T14:07:37.987Z,100061.75
2019-05-21T14:10:18.325Z,100068.06
2019-05-21T14:12:47.089Z,100066.83
2019-05-21T14:15:19.314Z,100075.73
2019-05-21T14:17:51.565Z,100073.65
2019-05-21T14:20:23.656Z,100075.82
2019-05-21T14:22:55.664Z,100079.78
2019-05-21T14:25:28.441Z,100078.84
2019-05-21T14:28:00.261Z,100083.66
2019-05-21T14:30:32.178Z,100084.39
2019-05-21T14:33:03.960Z,100081.27
2019-05-21T14:35:36.249Z,100084.21
2019-05-21T14:38:07.988Z,100087.33
2019-05-21T14:40:42.003Z,100087.70
2019-05-21T14:43:13.758Z,100088.27
2019-05-21T14:45:46.313Z,100089.20
2019-05-21T14:48:18.061Z,100093.64
2019-05-21T14:50:49.815Z,100095.34
2019-05-21T14:53:21.534Z,100095.72
2019-05-21T14:55:53.576Z,100100.92
2019-05-21T14:58:25.592Z,100101.73
2019-05-21T15:00:57.756Z,100106.20
2019-05-21T15:03:30.509Z,100110.98
2019-05-21T15:06:02.346Z,100106.59
2019-05-21T15:08:34.245Z,100110.55
2019-05-21T15:11:06.354Z,100110.17
2019-05-21T15:13:38.214Z,100119.51
2019-05-21T15:16:10.461Z,100112.05
2019-05-21T15:18:42.280Z,100117.34
2019-05-21T15:21:28.259Z,100116.95
2019-05-21T15:24:00.051Z,100111.75
2019-05-21T15:26:31.955Z,100123.09
2019-05-21T15:29:04.039Z,100128.47
2019-05-21T15:31:36.501Z,100129.78
2019-05-21T15:34:08.407Z,100137.25
2019-05-21T15:36:40.551Z,100131.78
2019-05-21T15:39:12.518Z,100139.33
2019-05-21T15:41:44.188Z,100145.84
2019-05-21T15:44:15.948Z,100141.80
2019-05-21T15:46:50.717Z,100146.67
2019-05-21T15:49:35.124Z,100145.77
2019-05-21T15:51:55.406Z,100148.32
2019-05-21T15:54:27.302Z,100150.49
2019-05-21T15:56:59.072Z,100149.90
2019-05-21T15:59:30.826Z,100154.25
2019-05-21T16:02:03.037Z,100166.05
2019-05-21T16:04:35.048Z,100165.67
2019-05-21T16:07:06.888Z,100171.34
2019-05-21T16:09:38.614Z,100164.27
2019-05-21T16:12:10.596Z,100170.02
2019-05-21T16:14:42.520Z,100174.92
2019-05-21T16:17:15.037Z,100171.05
2019-05-21T16:19:47.032Z,100173.81
2019-05-21T16:22:19.535Z,100172.58
2019-05-21T16:24:51.962Z,100176.63
2019-05-21T16:27:23.672Z,100175.39
2019-05-21T16:29:55.605Z,100182.09
2019-05-21T16:32:27.683Z,100183.02
2019-05-21T16:35:00.878Z,100186.34
2019-05-21T16:37:32.929Z,100178.32
2019-05-21T16:40:04.927Z,100186.33
2019-05-21T16:42:37.231Z,100177.28
2019-05-21T16:45:09.500Z,100185.30
2019-05-21T16:47:46.173Z,100180.69
2019-05-21T16:50:17.161Z,100193.98
2019-05-21T16:52:49.126Z,100181.14
2019-05-21T16:55:22.142Z,100185.95
2019-05-21T16:57:56.332Z,100187.75
2019-05-21T17:00:28.278Z,100195.41
2019-05-21T17:03:00.270Z,100193.23
2019-05-21T17:05:33.128Z,100198.52
2019-05-21T17:08:05.609Z,100205.12
2019-05-21T17:10:37.744Z,100201.62
2019-05-21T17:13:09.849Z,100204.73
2019-05-21T17:15:42.072Z,100208.31
2019-05-21T17:18:15.388Z,100207.08
2019-05-21T17:20:47.834Z,100206.81
2019-05-21T17:23:19.616Z,100210.77
2019-05-21T17:25:51.689Z,100219.16
2019-05-21T17:28:23.838Z,100217.07
2019-05-21T17:30:55.849Z,100218.39
2019-05-21T17:33:27.631Z,100219.36
2019-05-21T17:36:00.323Z,100223.79
2019-05-21T17:38:32.470Z,100223.87
2019-05-21T17:41:04.601Z,100228.38
2019-05-21T17:43:36.590Z,100223.30
2019-05-21T17:46:08.675Z,100228.66
2019-05-21T17:48:40.941Z,100227.81
2019-05-21T17:51:13.887Z,100231.39
2019-05-21T17:53:45.611Z,100233.67
2019-05-21T17:56:17.563Z,100231.50
2019-05-21T17:58:49.478Z,100240.36
2019-05-21T18:01:22.600Z,100242.23
2019-05-21T18:03:54.831Z,100245.84
2019-05-21T18:06:27.496Z,100250.27
2019-05-21T18:08:59.588Z,100256.09
2019-05-21T18:11:31.347Z,100257.03
2019-05-21T18:14:04.625Z,100255.31
2019-05-21T18:16:37.094Z,100258.07
2019-05-21T18:19:09.023Z,100270.89
2019-05-21T18:21:41.994Z,100268.41
2019-05-21T18:24:13.985Z,100275.01
2019-05-21T18:26:47.794Z,100274.73
2019-05-21T18:29:23.461Z,100277.45
2019-05-21T18:31:57.320Z,100289.06
2019-05-21T18:34:29.248Z,100290.38
2019-05-21T18:37:02.061Z,100290.38
2019-05-21T18:39:34.579Z,100293.88
2019-05-21T18:42:20.970Z,100302.64
2019-05-21T18:44:40.338Z,100303.47
2019-05-21T18:47:13.383Z,100307.34
2019-05-21T18:49:45.367Z,100306.03
2019-05-21T18:52:17.467Z,100314.72
2019-05-21T18:54:49.451Z,100313.79
2019-05-21T18:57:21.781Z,100322.92
2019-05-21T18:59:53.798Z,100324.23
2019-05-21T19:02:25.943Z,100325.02
2019-05-21T19:04:57.697Z,100327.58
2019-05-21T19:07:30.008Z,100330.03
2019-05-21T19:10:03.156Z,100332.20
2019-05-21T19:12:38.117Z,100337.48
2019-05-21T19:15:09.609Z,100340.20
2019-05-21T19:17:41.773Z,100347.58
2019-05-21T19:20:21.646Z,100346.26
2019-05-21T19:22:54.109Z,100348.90
2019-05-21T19:25:26.291Z,100351.23
2019-05-21T19:27:58.296Z,100363.11
2019-05-21T19:30:30.544Z,100359.34
2019-05-21T19:33:02.577Z,100363.77
2019-05-21T19:35:34.602Z,100373.78
2019-05-21T19:38:07.014Z,100372.92
2019-05-21T19:40:38.917Z,100370.75
2019-05-21T19:43:10.908Z,100376.97
2019-05-21T19:45:43.051Z,100378.20
2019-05-21T19:48:17.598Z,100379.61
2019-05-21T19:50:49.613Z,100386.59
2019-05-21T19:53:21.997Z,100390.55
2019-05-21T19:55:56.098Z,100395.37
2019-05-21T19:58:28.011Z,100396.69
2019-05-21T20:01:00.634Z,100399.80
2019-05-21T20:03:32.756Z,100404.69
2019-05-21T20:06:06.130Z,100406.86
2019-05-21T20:08:38.268Z,100408.19
2019-05-21T20:11:11.898Z,100420.06
2019-05-21T20:13:43.727Z,100410.36
2019-05-21T20:16:17.001Z,100423.56
2019-05-21T20:18:48.887Z,100422.63
2019-05-21T20:21:22.702Z,100422.91
2019-05-21T20:23:54.958Z,100420.73
2019-05-21T20:26:29.405Z,100430.83
2019-05-21T20:29:01.420Z,100429.52
2019-05-21T20:31:33.434Z,100427.34
2019-05-21T20:34:07.221Z,100432.16
2019-05-21T20:36:40.810Z,100424.23
2019-05-21T20:39:19.238Z,100420.73
2019-05-21T20:41:53.151Z,100427.45
2019-05-21T20:44:24.990Z,100431.77
2019-05-21T20:46:59.061Z,100428.19
2019-05-21T20:49:31.460Z,100429.05
2019-05-21T20:52:17.999Z,100428.11
2019-05-21T20:54:39.295Z,100432.47
2019-05-21T20:57:13.628Z,100430.29
2019-05-21T20:59:45.706Z,100432.93
2019-05-21T21:02:18.644Z,100431.03
2019-05-21T21:04:50.941Z,100430.56
2019-05-21T21:07:23.102Z,100429.64
2019-05-21T21:09:54.998Z,100433.20
2019-05-21T21:12:28.197Z,100432.36
2019-05-21T21:15:00.723Z,100426.22
2019-05-21T21:17:32.505Z,100434.06
2019-05-21T21:20:04.652Z,100435.38
2019-05-21T21:22:36.819Z,100429.64
2019-05-21T21:25:10.327Z,100435.77
2019-05-21T21:27:42.931Z,100438.03
2019-05-21T21:30:15.531Z,100433.59
2019-05-21T21:32:47.777Z,100435.46
2019-05-21T21:35:19.690Z,100440.85
2019-05-21T21:37:51.780Z,100439.61
2019-05-21T21:40:24.923Z,100438.28
2019-05-21T21:42:57.972Z,100438.01
2019-05-21T21:45:29.979Z,100444.69
2019-05-21T21:48:02.533Z,100449.19
2019-05-21T21:50:37.401Z,100454.54
2019-05-21T21:53:10.477Z,100453.72
2019-05-21T21:55:45.106Z,100441.45
2019-05-21T21:58:17.707Z,100458.61
2019-05-21T22:01:35.161Z,100452.09
2019-05-21T22:05:35.395Z,100445.95
2019-05-21T22:08:07.733Z,100450.48
2019-05-21T22:10:39.838Z,100453.66
2019-05-21T22:13:12.968Z,100451.48
2019-05-21T22:15:45.473Z,100454.52
2019-05-21T22:18:18.035Z,100456.30
2019-05-21T22:20:50.391Z,100453.27
2019-05-21T22:23:23.303Z,100457.16
2019-05-21T22:25:55.096Z,100458.55
2019-05-21T22:28:27.002Z,100451.09
2019-05-21T22:31:03.611Z,100454.59
2019-05-21T22:33:36.181Z,100449.88
2019-05-21T22:36:08.124Z,100450.89
2019-05-21T22:38:40.102Z,100458.03
2019-05-21T22:41:12.124Z,100454.06
2019-05-21T22:43:44.147Z,100450.68
2019-05-21T22:46:16.324Z,100452.00
2019-05-21T22:48:48.085Z,100461.23
2019-05-21T22:51:20.016Z,100457.81
2019-05-21T22:53:51.825Z,100455.18
2019-05-21T22:56:23.513Z,100457.42
2019-05-21T22:58:55.318Z,100457.42
2019-05-21T23:01:29.612Z,100459.21
2019-05-21T23:04:01.764Z,100460.17
2019-05-21T23:06:33.676Z,100458.86
2019-05-21T23:09:07.870Z,100454.97
2019-05-21T23:11:39.578Z,100455.51
2019-05-21T23:14:11.677Z,100452.98
2019-05-21T23:16:44.439Z,100450.87
2019-05-21T23:19:18.161Z,100450.48
2019-05-21T23:21:51.868Z,100451.88
2019-05-21T23:24:24.883Z,100449.31
2019-05-21T23:26:57.096Z,100454.13
2019-05-21T23:29:29.270Z,100453.73
2019-05-21T23:32:01.452Z,100449.84
2019-05-21T23:34:34.170Z,100453.73
2019-05-21T23:37:07.943Z,100449.73
2019-05-21T23:39:40.886Z,100449.23
2019-05-21T23:42:28.336Z,100445.28
2019-05-21T23:44:47.114Z,100446.59
2019-05-21T23:47:48.454Z,100450.09
2019-05-21T23:50:21.101Z,100450.95
2019-05-21T23:52:54.233Z,100449.63
2019-05-21T23:55:26.020Z,100448.31
2019-05-21T23:57:57.869Z,100446.98
